Diadema Argentina, Argentina
Current Conditions -  °F | °C
As of 7:00 PM on Sunday 25 Jan 2015 (Local Time) from SAVC Reporting Station
Clear Clear  
Wind Chill: 19°   Ceiling: Unl
Heat Index: 19°   Visibility: 6mi
Dew Point: 11°   Wind: 15mph
Humidity: 60%   Direction: 50°NE
Pressure: 29.71"   Gusts: NA
Location:  45.77°S, 67.67°W
Report Text: SAVC 252200Z 05013KT CAVOK 19/11 Q1006
Loading
Personal Weather Stations






























Interactive Weather Map New forecast layout! Learn more

10-Day Weather Forecast

Advertisements
Track Severe Weather on mobile